sensor_id;sensor_type;location;lat;lon;timestamp;P1;durP1;ratioP1;P2;durP2;ratioP2
72408;SDS011;60402;48.082;11.628;2022-11-30T00:03:36;29.25;;;10.50;;
72408;SDS011;60402;48.082;11.628;2022-11-30T00:06:05;27.63;;;9.75;;
72408;SDS011;60402;48.082;11.628;2022-11-30T00:08:32;28.63;;;10.40;;
72408;SDS011;60402;48.082;11.628;2022-11-30T00:10:57;27.20;;;9.88;;
72408;SDS011;60402;48.082;11.628;2022-11-30T00:13:23;31.00;;;11.60;;
72408;SDS011;60402;48.082;11.628;2022-11-30T00:15:48;32.70;;;12.05;;
72408;SDS011;60402;48.082;11.628;2022-11-30T00:18:14;28.65;;;10.07;;
72408;SDS011;60402;48.082;11.628;2022-11-30T00:20:41;29.27;;;11.07;;
72408;SDS011;60402;48.082;11.628;2022-11-30T00:23:07;29.48;;;10.95;;
72408;SDS011;60402;48.082;11.628;2022-11-30T00:25:34;31.52;;;12.10;;
72408;SDS011;60402;48.082;11.628;2022-11-30T00:28:00;29.20;;;11.70;;
72408;SDS011;60402;48.082;11.628;2022-11-30T00:30:26;33.00;;;11.27;;
72408;SDS011;60402;48.082;11.628;2022-11-30T00:32:55;30.67;;;11.48;;
72408;SDS011;60402;48.082;11.628;2022-11-30T00:35:21;30.65;;;11.23;;
72408;SDS011;60402;48.082;11.628;2022-11-30T00:37:47;32.88;;;12.15;;
72408;SDS011;60402;48.082;11.628;2022-11-30T00:40:12;29.10;;;10.48;;
72408;SDS011;60402;48.082;11.628;2022-11-30T00:42:38;34.83;;;11.30;;
72408;SDS011;60402;48.082;11.628;2022-11-30T00:45:04;33.58;;;12.18;;
72408;SDS011;60402;48.082;11.628;2022-11-30T00:47:29;33.30;;;12.05;;
72408;SDS011;60402;48.082;11.628;2022-11-30T00:49:55;33.55;;;12.63;;
72408;SDS011;60402;48.082;11.628;2022-11-30T00:52:20;32.47;;;12.82;;
72408;SDS011;60402;48.082;11.628;2022-11-30T00:54:46;34.15;;;12.40;;
72408;SDS011;60402;48.082;11.628;2022-11-30T00:57:11;32.40;;;11.73;;
72408;SDS011;60402;48.082;11.628;2022-11-30T00:59:37;37.63;;;14.30;;
72408;SDS011;60402;48.082;11.628;2022-11-30T01:02:02;34.13;;;13.32;;
72408;SDS011;60402;48.082;11.628;2022-11-30T01:04:27;36.80;;;13.35;;
72408;SDS011;60402;48.082;11.628;2022-11-30T01:06:53;34.80;;;11.90;;
72408;SDS011;60402;48.082;11.628;2022-11-30T01:09:18;36.05;;;12.88;;
72408;SDS011;60402;48.082;11.628;2022-11-30T01:11:46;31.92;;;12.70;;
72408;SDS011;60402;48.082;11.628;2022-11-30T01:14:11;31.00;;;12.93;;
72408;SDS011;60402;48.082;11.628;2022-11-30T01:16:36;35.45;;;13.50;;
72408;SDS011;60402;48.082;11.628;2022-11-30T01:19:02;39.45;;;13.63;;
72408;SDS011;60402;48.082;11.628;2022-11-30T01:21:28;36.70;;;12.55;;
72408;SDS011;60402;48.082;11.628;2022-11-30T01:23:54;34.13;;;12.45;;
72408;SDS011;60402;48.082;11.628;2022-11-30T01:26:20;32.80;;;12.10;;
72408;SDS011;60402;48.082;11.628;2022-11-30T01:28:50;42.28;;;14.50;;
72408;SDS011;60402;48.082;11.628;2022-11-30T01:31:16;36.53;;;13.60;;
72408;SDS011;60402;48.082;11.628;2022-11-30T01:33:42;33.42;;;12.10;;
72408;SDS011;60402;48.082;11.628;2022-11-30T01:38:40;37.95;;;14.23;;
72408;SDS011;60402;48.082;11.628;2022-11-30T01:41:08;37.65;;;13.13;;
72408;SDS011;60402;48.082;11.628;2022-11-30T01:43:39;38.05;;;13.80;;
72408;SDS011;60402;48.082;11.628;2022-11-30T01:51:39;40.63;;;14.73;;
72408;SDS011;60402;48.082;11.628;2022-11-30T01:54:09;35.50;;;14.50;;
72408;SDS011;60402;48.082;11.628;2022-11-30T01:56:39;32.25;;;12.50;;
72408;SDS011;60402;48.082;11.628;2022-11-30T01:59:09;40.17;;;14.52;;
72408;SDS011;60402;48.082;11.628;2022-11-30T02:01:35;37.72;;;12.77;;
72408;SDS011;60402;48.082;11.628;2022-11-30T02:04:02;33.65;;;13.25;;
72408;SDS011;60402;48.082;11.628;2022-11-30T02:06:47;37.78;;;12.90;;
72408;SDS011;60402;48.082;11.628;2022-11-30T02:09:13;32.00;;;11.93;;
72408;SDS011;60402;48.082;11.628;2022-11-30T02:11:42;35.75;;;13.02;;
72408;SDS011;60402;48.082;11.628;2022-11-30T02:30:18;37.67;;;14.55;;
72408;SDS011;60402;48.082;11.628;2022-11-30T02:35:20;38.30;;;13.73;;
72408;SDS011;60402;48.082;11.628;2022-11-30T02:37:49;35.60;;;13.52;;
72408;SDS011;60402;48.082;11.628;2022-11-30T02:40:17;39.03;;;14.05;;
72408;SDS011;60402;48.082;11.628;2022-11-30T02:42:43;39.63;;;13.63;;
72408;SDS011;60402;48.082;11.628;2022-11-30T02:45:08;39.85;;;13.77;;
72408;SDS011;60402;48.082;11.628;2022-11-30T02:50:23;41.50;;;14.13;;
72408;SDS011;60402;48.082;11.628;2022-11-30T02:52:53;39.50;;;13.48;;
72408;SDS011;60402;48.082;11.628;2022-11-30T02:55:19;30.27;;;11.27;;
72408;SDS011;60402;48.082;11.628;2022-11-30T02:57:45;34.15;;;11.75;;
72408;SDS011;60402;48.082;11.628;2022-11-30T03:00:11;33.20;;;11.48;;
72408;SDS011;60402;48.082;11.628;2022-11-30T03:02:38;31.15;;;12.18;;
72408;SDS011;60402;48.082;11.628;2022-11-30T03:05:04;33.55;;;11.25;;
72408;SDS011;60402;48.082;11.628;2022-11-30T03:07:30;25.00;;;9.70;;
72408;SDS011;60402;48.082;11.628;2022-11-30T03:09:56;29.70;;;9.80;;
72408;SDS011;60402;48.082;11.628;2022-11-30T03:12:22;29.02;;;9.82;;
72408;SDS011;60402;48.082;11.628;2022-11-30T03:14:47;29.15;;;10.75;;
72408;SDS011;60402;48.082;11.628;2022-11-30T03:17:13;27.92;;;10.13;;
72408;SDS011;60402;48.082;11.628;2022-11-30T03:19:38;26.85;;;9.93;;
72408;SDS011;60402;48.082;11.628;2022-11-30T03:22:03;25.65;;;8.02;;
72408;SDS011;60402;48.082;11.628;2022-11-30T03:24:29;28.73;;;11.05;;
72408;SDS011;60402;48.082;11.628;2022-11-30T03:26:54;28.70;;;10.85;;
72408;SDS011;60402;48.082;11.628;2022-11-30T03:29:20;30.38;;;10.77;;
72408;SDS011;60402;48.082;11.628;2022-11-30T03:31:45;32.95;;;11.00;;
72408;SDS011;60402;48.082;11.628;2022-11-30T03:34:10;33.65;;;12.80;;
72408;SDS011;60402;48.082;11.628;2022-11-30T03:36:36;33.25;;;11.82;;
72408;SDS011;60402;48.082;11.628;2022-11-30T03:39:01;36.20;;;12.40;;
72408;SDS011;60402;48.082;11.628;2022-11-30T03:41:27;32.83;;;11.02;;
72408;SDS011;60402;48.082;11.628;2022-11-30T03:43:52;33.35;;;12.15;;
72408;SDS011;60402;48.082;11.628;2022-11-30T03:46:18;37.70;;;11.88;;
72408;SDS011;60402;48.082;11.628;2022-11-30T03:48:43;33.10;;;11.88;;
72408;SDS011;60402;48.082;11.628;2022-11-30T03:51:09;32.13;;;11.15;;
72408;SDS011;60402;48.082;11.628;2022-11-30T03:53:36;37.53;;;12.60;;
72408;SDS011;60402;48.082;11.628;2022-11-30T03:56:03;39.20;;;11.88;;
72408;SDS011;60402;48.082;11.628;2022-11-30T03:58:30;36.20;;;12.00;;
72408;SDS011;60402;48.082;11.628;2022-11-30T04:01:00;33.45;;;11.88;;
72408;SDS011;60402;48.082;11.628;2022-11-30T04:03:32;36.78;;;11.38;;
72408;SDS011;60402;48.082;11.628;2022-11-30T04:05:59;34.08;;;11.48;;
72408;SDS011;60402;48.082;11.628;2022-11-30T04:08:26;30.17;;;11.43;;
72408;SDS011;60402;48.082;11.628;2022-11-30T04:10:52;32.50;;;12.65;;
72408;SDS011;60402;48.082;11.628;2022-11-30T04:13:19;32.13;;;11.18;;
72408;SDS011;60402;48.082;11.628;2022-11-30T04:15:47;35.78;;;12.40;;
72408;SDS011;60402;48.082;11.628;2022-11-30T04:18:14;32.80;;;10.50;;
72408;SDS011;60402;48.082;11.628;2022-11-30T04:20:40;35.67;;;12.65;;
72408;SDS011;60402;48.082;11.628;2022-11-30T04:23:05;39.03;;;11.75;;
72408;SDS011;60402;48.082;11.628;2022-11-30T04:25:38;33.97;;;11.45;;
72408;SDS011;60402;48.082;11.628;2022-11-30T04:28:05;36.50;;;10.55;;
72408;SDS011;60402;48.082;11.628;2022-11-30T04:30:32;35.92;;;12.57;;
72408;SDS011;60402;48.082;11.628;2022-11-30T04:32:58;38.85;;;14.07;;
72408;SDS011;60402;48.082;11.628;2022-11-30T04:35:24;40.45;;;13.00;;
72408;SDS011;60402;48.082;11.628;2022-11-30T04:37:49;34.05;;;11.93;;
72408;SDS011;60402;48.082;11.628;2022-11-30T04:40:15;36.15;;;11.27;;
72408;SDS011;60402;48.082;11.628;2022-11-30T04:42:40;34.72;;;11.95;;
72408;SDS011;60402;48.082;11.628;2022-11-30T04:45:06;32.80;;;11.95;;
72408;SDS011;60402;48.082;11.628;2022-11-30T04:47:32;32.28;;;11.27;;
72408;SDS011;60402;48.082;11.628;2022-11-30T04:49:58;38.55;;;12.55;;
72408;SDS011;60402;48.082;11.628;2022-11-30T04:52:23;38.72;;;13.40;;
72408;SDS011;60402;48.082;11.628;2022-11-30T04:54:49;41.60;;;13.25;;
72408;SDS011;60402;48.082;11.628;2022-11-30T04:57:17;40.97;;;13.65;;
72408;SDS011;60402;48.082;11.628;2022-11-30T04:59:43;30.45;;;11.15;;
72408;SDS011;60402;48.082;11.628;2022-11-30T05:02:08;34.67;;;12.25;;
72408;SDS011;60402;48.082;11.628;2022-11-30T05:04:34;33.78;;;12.20;;
72408;SDS011;60402;48.082;11.628;2022-11-30T05:07:00;41.60;;;13.88;;
72408;SDS011;60402;48.082;11.628;2022-11-30T05:09:25;30.88;;;11.93;;
72408;SDS011;60402;48.082;11.628;2022-11-30T05:11:53;34.92;;;11.65;;
72408;SDS011;60402;48.082;11.628;2022-11-30T05:14:21;31.05;;;12.43;;
72408;SDS011;60402;48.082;11.628;2022-11-30T05:16:47;37.55;;;12.38;;
72408;SDS011;60402;48.082;11.628;2022-11-30T05:19:13;34.42;;;11.55;;
72408;SDS011;60402;48.082;11.628;2022-11-30T05:21:39;33.05;;;12.10;;
72408;SDS011;60402;48.082;11.628;2022-11-30T05:24:05;40.97;;;12.98;;
72408;SDS011;60402;48.082;11.628;2022-11-30T05:26:30;30.65;;;11.02;;
72408;SDS011;60402;48.082;11.628;2022-11-30T05:28:58;34.72;;;13.38;;
72408;SDS011;60402;48.082;11.628;2022-11-30T05:31:24;34.00;;;12.73;;
72408;SDS011;60402;48.082;11.628;2022-11-30T05:33:51;35.38;;;11.10;;
72408;SDS011;60402;48.082;11.628;2022-11-30T05:36:18;32.47;;;11.32;;
72408;SDS011;60402;48.082;11.628;2022-11-30T05:38:44;32.72;;;12.52;;
72408;SDS011;60402;48.082;11.628;2022-11-30T05:41:09;33.55;;;11.80;;
72408;SDS011;60402;48.082;11.628;2022-11-30T05:43:35;36.88;;;13.20;;
72408;SDS011;60402;48.082;11.628;2022-11-30T05:46:01;31.48;;;11.30;;
72408;SDS011;60402;48.082;11.628;2022-11-30T05:48:27;32.38;;;12.57;;
72408;SDS011;60402;48.082;11.628;2022-11-30T05:50:53;39.15;;;13.18;;
72408;SDS011;60402;48.082;11.628;2022-11-30T05:53:18;36.72;;;13.07;;
72408;SDS011;60402;48.082;11.628;2022-11-30T05:55:44;33.58;;;11.98;;
72408;SDS011;60402;48.082;11.628;2022-11-30T05:58:12;31.30;;;10.82;;
72408;SDS011;60402;48.082;11.628;2022-11-30T06:00:37;31.13;;;11.15;;
72408;SDS011;60402;48.082;11.628;2022-11-30T06:03:05;30.95;;;11.55;;
72408;SDS011;60402;48.082;11.628;2022-11-30T06:05:39;30.08;;;10.82;;
72408;SDS011;60402;48.082;11.628;2022-11-30T06:08:13;30.65;;;11.07;;
72408;SDS011;60402;48.082;11.628;2022-11-30T06:10:39;32.30;;;11.55;;
72408;SDS011;60402;48.082;11.628;2022-11-30T06:13:05;31.52;;;10.80;;
72408;SDS011;60402;48.082;11.628;2022-11-30T06:15:33;33.10;;;10.68;;
72408;SDS011;60402;48.082;11.628;2022-11-30T06:17:58;32.85;;;10.98;;
72408;SDS011;60402;48.082;11.628;2022-11-30T06:20:23;30.60;;;10.75;;
72408;SDS011;60402;48.082;11.628;2022-11-30T06:22:52;30.70;;;10.27;;
72408;SDS011;60402;48.082;11.628;2022-11-30T06:25:17;32.30;;;11.20;;
72408;SDS011;60402;48.082;11.628;2022-11-30T06:27:42;28.77;;;10.30;;
72408;SDS011;60402;48.082;11.628;2022-11-30T06:30:08;28.35;;;10.30;;
72408;SDS011;60402;48.082;11.628;2022-11-30T06:32:34;33.17;;;11.75;;
72408;SDS011;60402;48.082;11.628;2022-11-30T06:34:59;29.60;;;10.75;;
72408;SDS011;60402;48.082;11.628;2022-11-30T06:37:24;28.13;;;10.50;;
72408;SDS011;60402;48.082;11.628;2022-11-30T06:39:50;33.85;;;11.48;;
72408;SDS011;60402;48.082;11.628;2022-11-30T06:42:15;26.42;;;9.95;;
72408;SDS011;60402;48.082;11.628;2022-11-30T06:44:40;33.60;;;11.18;;
72408;SDS011;60402;48.082;11.628;2022-11-30T06:47:06;32.55;;;11.88;;
72408;SDS011;60402;48.082;11.628;2022-11-30T06:49:31;30.30;;;11.25;;
72408;SDS011;60402;48.082;11.628;2022-11-30T06:51:56;31.67;;;12.00;;
72408;SDS011;60402;48.082;11.628;2022-11-30T06:54:22;28.73;;;10.27;;
72408;SDS011;60402;48.082;11.628;2022-11-30T06:56:47;32.70;;;12.07;;
72408;SDS011;60402;48.082;11.628;2022-11-30T06:59:12;29.83;;;12.32;;
72408;SDS011;60402;48.082;11.628;2022-11-30T07:01:38;31.35;;;11.48;;
72408;SDS011;60402;48.082;11.628;2022-11-30T07:04:03;31.40;;;11.48;;
72408;SDS011;60402;48.082;11.628;2022-11-30T07:06:29;27.45;;;10.75;;
72408;SDS011;60402;48.082;11.628;2022-11-30T07:08:54;28.98;;;10.07;;
72408;SDS011;60402;48.082;11.628;2022-11-30T07:11:19;28.88;;;10.50;;
72408;SDS011;60402;48.082;11.628;2022-11-30T07:13:44;29.10;;;10.65;;
72408;SDS011;60402;48.082;11.628;2022-11-30T07:16:10;31.88;;;11.32;;
72408;SDS011;60402;48.082;11.628;2022-11-30T07:18:36;32.20;;;11.40;;
72408;SDS011;60402;48.082;11.628;2022-11-30T07:21:02;29.17;;;10.23;;
72408;SDS011;60402;48.082;11.628;2022-11-30T07:23:29;32.85;;;12.23;;
72408;SDS011;60402;48.082;11.628;2022-11-30T07:26:13;32.00;;;11.20;;
72408;SDS011;60402;48.082;11.628;2022-11-30T07:28:40;31.17;;;10.32;;
72408;SDS011;60402;48.082;11.628;2022-11-30T07:31:23;33.60;;;11.80;;
72408;SDS011;60402;48.082;11.628;2022-11-30T07:33:50;27.88;;;10.65;;
72408;SDS011;60402;48.082;11.628;2022-11-30T07:36:17;30.35;;;11.18;;
72408;SDS011;60402;48.082;11.628;2022-11-30T07:38:43;28.80;;;11.32;;
72408;SDS011;60402;48.082;11.628;2022-11-30T07:41:10;30.95;;;11.00;;
72408;SDS011;60402;48.082;11.628;2022-11-30T07:43:35;26.70;;;10.23;;
72408;SDS011;60402;48.082;11.628;2022-11-30T07:46:01;31.88;;;12.15;;
72408;SDS011;60402;48.082;11.628;2022-11-30T07:48:26;34.75;;;11.43;;
72408;SDS011;60402;48.082;11.628;2022-11-30T07:50:52;31.27;;;11.82;;
72408;SDS011;60402;48.082;11.628;2022-11-30T07:53:17;32.38;;;11.55;;
72408;SDS011;60402;48.082;11.628;2022-11-30T07:55:43;33.95;;;11.80;;
72408;SDS011;60402;48.082;11.628;2022-11-30T07:58:09;30.67;;;11.23;;
72408;SDS011;60402;48.082;11.628;2022-11-30T08:00:45;28.73;;;10.73;;
72408;SDS011;60402;48.082;11.628;2022-11-30T08:03:11;32.97;;;12.27;;
72408;SDS011;60402;48.082;11.628;2022-11-30T08:05:36;30.50;;;10.85;;
72408;SDS011;60402;48.082;11.628;2022-11-30T08:08:02;32.45;;;12.43;;
72408;SDS011;60402;48.082;11.628;2022-11-30T08:10:27;28.92;;;10.55;;
72408;SDS011;60402;48.082;11.628;2022-11-30T08:12:52;30.30;;;11.40;;
72408;SDS011;60402;48.082;11.628;2022-11-30T08:15:18;29.08;;;9.48;;
72408;SDS011;60402;48.082;11.628;2022-11-30T08:17:43;28.88;;;10.20;;
72408;SDS011;60402;48.082;11.628;2022-11-30T08:20:10;30.67;;;10.32;;
72408;SDS011;60402;48.082;11.628;2022-11-30T08:22:36;30.40;;;11.45;;
72408;SDS011;60402;48.082;11.628;2022-11-30T08:25:01;26.45;;;9.77;;
72408;SDS011;60402;48.082;11.628;2022-11-30T08:27:26;25.70;;;10.68;;
72408;SDS011;60402;48.082;11.628;2022-11-30T08:29:52;27.08;;;10.82;;
72408;SDS011;60402;48.082;11.628;2022-11-30T08:32:17;28.10;;;10.98;;
72408;SDS011;60402;48.082;11.628;2022-11-30T08:34:43;33.00;;;11.52;;
72408;SDS011;60402;48.082;11.628;2022-11-30T08:37:08;35.60;;;11.55;;
72408;SDS011;60402;48.082;11.628;2022-11-30T08:39:34;32.60;;;10.70;;
72408;SDS011;60402;48.082;11.628;2022-11-30T08:42:00;28.40;;;10.45;;
72408;SDS011;60402;48.082;11.628;2022-11-30T08:44:29;36.47;;;11.50;;
72408;SDS011;60402;48.082;11.628;2022-11-30T08:46:57;25.55;;;9.65;;
72408;SDS011;60402;48.082;11.628;2022-11-30T08:49:23;26.83;;;11.48;;
72408;SDS011;60402;48.082;11.628;2022-11-30T08:51:57;27.15;;;9.55;;
72408;SDS011;60402;48.082;11.628;2022-11-30T08:54:30;30.83;;;10.80;;
72408;SDS011;60402;48.082;11.628;2022-11-30T08:56:58;31.58;;;11.15;;
72408;SDS011;60402;48.082;11.628;2022-11-30T08:59:25;28.05;;;9.60;;
72408;SDS011;60402;48.082;11.628;2022-11-30T09:01:58;26.48;;;9.95;;
72408;SDS011;60402;48.082;11.628;2022-11-30T09:04:29;32.10;;;10.13;;
72408;SDS011;60402;48.082;11.628;2022-11-30T09:06:55;29.33;;;9.55;;
72408;SDS011;60402;48.082;11.628;2022-11-30T09:09:25;28.58;;;10.05;;
72408;SDS011;60402;48.082;11.628;2022-11-30T09:11:56;25.45;;;9.75;;
72408;SDS011;60402;48.082;11.628;2022-11-30T09:14:29;31.83;;;10.38;;
72408;SDS011;60402;48.082;11.628;2022-11-30T09:16:55;23.70;;;8.68;;
72408;SDS011;60402;48.082;11.628;2022-11-30T09:19:23;23.77;;;9.18;;
72408;SDS011;60402;48.082;11.628;2022-11-30T09:22:09;26.48;;;9.95;;
72408;SDS011;60402;48.082;11.628;2022-11-30T09:24:35;23.00;;;9.13;;
72408;SDS011;60402;48.082;11.628;2022-11-30T09:27:02;24.20;;;8.55;;
72408;SDS011;60402;48.082;11.628;2022-11-30T09:29:27;21.83;;;9.48;;
72408;SDS011;60402;48.082;11.628;2022-11-30T09:31:55;25.98;;;9.80;;
72408;SDS011;60402;48.082;11.628;2022-11-30T09:34:24;27.70;;;9.88;;
72408;SDS011;60402;48.082;11.628;2022-11-30T09:36:49;22.33;;;8.15;;
72408;SDS011;60402;48.082;11.628;2022-11-30T09:39:18;22.50;;;8.05;;
72408;SDS011;60402;48.082;11.628;2022-11-30T09:44:28;24.23;;;8.05;;
72408;SDS011;60402;48.082;11.628;2022-11-30T09:47:15;25.65;;;8.35;;
72408;SDS011;60402;48.082;11.628;2022-11-30T09:50:04;21.80;;;8.30;;
72408;SDS011;60402;48.082;11.628;2022-11-30T09:52:41;26.33;;;9.88;;
72408;SDS011;60402;48.082;11.628;2022-11-30T09:55:11;27.27;;;8.85;;
72408;SDS011;60402;48.082;11.628;2022-11-30T09:57:44;22.63;;;8.02;;
72408;SDS011;60402;48.082;11.628;2022-11-30T10:00:13;25.40;;;8.95;;
72408;SDS011;60402;48.082;11.628;2022-11-30T10:02:58;24.13;;;8.63;;
72408;SDS011;60402;48.082;11.628;2022-11-30T10:05:36;24.13;;;8.88;;
72408;SDS011;60402;48.082;11.628;2022-11-30T10:25:38;26.45;;;9.10;;
72408;SDS011;60402;48.082;11.628;2022-11-30T10:31:29;25.67;;;9.45;;
72408;SDS011;60402;48.082;11.628;2022-11-30T10:34:04;24.08;;;9.05;;
72408;SDS011;60402;48.082;11.628;2022-11-30T10:37:18;29.05;;;10.25;;
72408;SDS011;60402;48.082;11.628;2022-11-30T10:45:07;23.58;;;8.77;;
72408;SDS011;60402;48.082;11.628;2022-11-30T10:47:44;26.52;;;10.13;;
72408;SDS011;60402;48.082;11.628;2022-11-30T10:50:15;22.73;;;9.00;;
72408;SDS011;60402;48.082;11.628;2022-11-30T10:52:50;22.05;;;8.18;;
72408;SDS011;60402;48.082;11.628;2022-11-30T10:55:19;21.42;;;8.02;;
72408;SDS011;60402;48.082;11.628;2022-11-30T10:57:58;20.80;;;7.95;;
72408;SDS011;60402;48.082;11.628;2022-11-30T11:00:29;18.55;;;7.95;;
72408;SDS011;60402;48.082;11.628;2022-11-30T11:02:57;20.75;;;8.10;;
72408;SDS011;60402;48.082;11.628;2022-11-30T11:05:37;23.17;;;8.73;;
72408;SDS011;60402;48.082;11.628;2022-11-30T11:08:18;24.70;;;8.52;;
72408;SDS011;60402;48.082;11.628;2022-11-30T11:10:52;22.00;;;7.70;;
72408;SDS011;60402;48.082;11.628;2022-11-30T11:19:11;22.27;;;8.48;;
72408;SDS011;60402;48.082;11.628;2022-11-30T11:21:47;23.40;;;8.48;;
72408;SDS011;60402;48.082;11.628;2022-11-30T11:24:15;27.30;;;8.80;;
72408;SDS011;60402;48.082;11.628;2022-11-30T11:26:50;22.63;;;8.45;;
72408;SDS011;60402;48.082;11.628;2022-11-30T11:29:23;24.73;;;8.60;;
72408;SDS011;60402;48.082;11.628;2022-11-30T11:32:05;22.20;;;8.50;;
72408;SDS011;60402;48.082;11.628;2022-11-30T11:34:36;21.17;;;8.95;;
72408;SDS011;60402;48.082;11.628;2022-11-30T11:37:06;21.05;;;8.13;;
72408;SDS011;60402;48.082;11.628;2022-11-30T11:39:32;21.10;;;8.63;;
72408;SDS011;60402;48.082;11.628;2022-11-30T11:41:57;21.42;;;7.90;;
72408;SDS011;60402;48.082;11.628;2022-11-30T11:44:27;18.40;;;7.43;;
72408;SDS011;60402;48.082;11.628;2022-11-30T11:46:53;21.08;;;8.65;;
72408;SDS011;60402;48.082;11.628;2022-11-30T11:49:25;21.38;;;7.90;;
72408;SDS011;60402;48.082;11.628;2022-11-30T11:54:29;23.88;;;8.95;;
72408;SDS011;60402;48.082;11.628;2022-11-30T11:57:03;26.48;;;9.48;;
72408;SDS011;60402;48.082;11.628;2022-11-30T11:59:53;25.02;;;9.27;;
72408;SDS011;60402;48.082;11.628;2022-11-30T12:02:31;24.08;;;8.63;;
72408;SDS011;60402;48.082;11.628;2022-11-30T12:05:06;26.10;;;9.85;;
72408;SDS011;60402;48.082;11.628;2022-11-30T12:07:51;16.88;;;7.78;;
72408;SDS011;60402;48.082;11.628;2022-11-30T12:10:40;23.90;;;9.77;;
72408;SDS011;60402;48.082;11.628;2022-11-30T12:13:14;23.30;;;9.13;;
72408;SDS011;60402;48.082;11.628;2022-11-30T12:15:46;27.95;;;9.15;;
72408;SDS011;60402;48.082;11.628;2022-11-30T12:18:22;22.45;;;8.80;;
72408;SDS011;60402;48.082;11.628;2022-11-30T12:20:54;22.98;;;9.20;;
72408;SDS011;60402;48.082;11.628;2022-11-30T12:26:27;21.90;;;8.57;;
72408;SDS011;60402;48.082;11.628;2022-11-30T12:32:00;23.23;;;8.25;;
72408;SDS011;60402;48.082;11.628;2022-11-30T12:43:01;17.52;;;7.65;;
72408;SDS011;60402;48.082;11.628;2022-11-30T12:45:47;22.70;;;8.70;;
72408;SDS011;60402;48.082;11.628;2022-11-30T13:04:46;19.77;;;7.50;;
72408;SDS011;60402;48.082;11.628;2022-11-30T13:07:21;18.27;;;8.00;;
72408;SDS011;60402;48.082;11.628;2022-11-30T13:09:59;20.15;;;8.57;;
72408;SDS011;60402;48.082;11.628;2022-11-30T13:12:34;21.00;;;8.70;;
72408;SDS011;60402;48.082;11.628;2022-11-30T13:15:04;20.33;;;9.23;;
72408;SDS011;60402;48.082;11.628;2022-11-30T13:17:47;19.38;;;7.80;;
72408;SDS011;60402;48.082;11.628;2022-11-30T13:20:33;21.30;;;7.55;;
72408;SDS011;60402;48.082;11.628;2022-11-30T13:31:24;18.65;;;8.20;;
72408;SDS011;60402;48.082;11.628;2022-11-30T13:36:29;21.40;;;7.60;;
72408;SDS011;60402;48.082;11.628;2022-11-30T13:39:24;20.17;;;7.88;;
72408;SDS011;60402;48.082;11.628;2022-11-30T13:44:35;23.67;;;7.55;;
72408;SDS011;60402;48.082;11.628;2022-11-30T13:47:03;20.85;;;8.02;;
72408;SDS011;60402;48.082;11.628;2022-11-30T13:49:39;22.33;;;8.15;;
72408;SDS011;60402;48.082;11.628;2022-11-30T13:52:05;26.00;;;9.13;;
72408;SDS011;60402;48.082;11.628;2022-11-30T13:54:47;19.90;;;8.05;;
72408;SDS011;60402;48.082;11.628;2022-11-30T13:59:54;21.20;;;7.72;;
72408;SDS011;60402;48.082;11.628;2022-11-30T14:07:43;23.42;;;7.90;;
72408;SDS011;60402;48.082;11.628;2022-11-30T14:10:29;21.58;;;7.97;;
72408;SDS011;60402;48.082;11.628;2022-11-30T14:12:57;20.65;;;8.00;;
72408;SDS011;60402;48.082;11.628;2022-11-30T14:18:15;20.92;;;9.07;;
72408;SDS011;60402;48.082;11.628;2022-11-30T14:20:51;24.52;;;9.18;;
72408;SDS011;60402;48.082;11.628;2022-11-30T14:23:19;20.13;;;8.25;;
72408;SDS011;60402;48.082;11.628;2022-11-30T14:25:48;22.52;;;9.00;;
72408;SDS011;60402;48.082;11.628;2022-11-30T14:28:16;23.42;;;7.78;;
72408;SDS011;60402;48.082;11.628;2022-11-30T14:30:45;22.17;;;8.40;;
72408;SDS011;60402;48.082;11.628;2022-11-30T14:33:15;24.77;;;9.52;;
72408;SDS011;60402;48.082;11.628;2022-11-30T14:35:43;26.40;;;10.38;;
72408;SDS011;60402;48.082;11.628;2022-11-30T14:38:15;26.42;;;9.85;;
72408;SDS011;60402;48.082;11.628;2022-11-30T14:40:49;23.45;;;8.70;;
72408;SDS011;60402;48.082;11.628;2022-11-30T14:43:16;25.00;;;10.18;;
72408;SDS011;60402;48.082;11.628;2022-11-30T14:45:42;23.15;;;9.50;;
72408;SDS011;60402;48.082;11.628;2022-11-30T14:48:23;27.45;;;10.20;;
72408;SDS011;60402;48.082;11.628;2022-11-30T14:50:50;27.33;;;10.32;;
72408;SDS011;60402;48.082;11.628;2022-11-30T14:53:24;26.13;;;10.68;;
72408;SDS011;60402;48.082;11.628;2022-11-30T14:58:34;29.25;;;11.30;;
72408;SDS011;60402;48.082;11.628;2022-11-30T15:01:27;24.40;;;10.90;;
72408;SDS011;60402;48.082;11.628;2022-11-30T15:04:04;26.48;;;11.32;;
72408;SDS011;60402;48.082;11.628;2022-11-30T15:06:36;25.90;;;10.52;;
72408;SDS011;60402;48.082;11.628;2022-11-30T15:09:03;29.35;;;11.85;;
72408;SDS011;60402;48.082;11.628;2022-11-30T15:11:29;28.80;;;11.23;;
72408;SDS011;60402;48.082;11.628;2022-11-30T15:13:55;27.13;;;11.32;;
72408;SDS011;60402;48.082;11.628;2022-11-30T15:16:31;26.65;;;10.27;;
72408;SDS011;60402;48.082;11.628;2022-11-30T15:18:57;27.13;;;10.45;;
72408;SDS011;60402;48.082;11.628;2022-11-30T15:21:24;27.85;;;9.98;;
72408;SDS011;60402;48.082;11.628;2022-11-30T15:23:55;24.13;;;9.57;;
72408;SDS011;60402;48.082;11.628;2022-11-30T15:26:31;29.42;;;11.88;;
72408;SDS011;60402;48.082;11.628;2022-11-30T15:29:06;22.90;;;9.38;;
72408;SDS011;60402;48.082;11.628;2022-11-30T15:34:05;25.95;;;9.10;;
72408;SDS011;60402;48.082;11.628;2022-11-30T15:36:40;24.58;;;10.48;;
72408;SDS011;60402;48.082;11.628;2022-11-30T15:39:06;27.05;;;9.68;;
72408;SDS011;60402;48.082;11.628;2022-11-30T15:41:40;25.05;;;9.65;;
72408;SDS011;60402;48.082;11.628;2022-11-30T15:44:15;25.27;;;9.70;;
72408;SDS011;60402;48.082;11.628;2022-11-30T15:47:21;25.10;;;10.18;;
72408;SDS011;60402;48.082;11.628;2022-11-30T15:49:54;28.27;;;11.68;;
72408;SDS011;60402;48.082;11.628;2022-11-30T15:52:24;23.88;;;10.65;;
72408;SDS011;60402;48.082;11.628;2022-11-30T15:54:52;26.95;;;10.52;;
72408;SDS011;60402;48.082;11.628;2022-11-30T15:57:23;28.55;;;10.77;;
72408;SDS011;60402;48.082;11.628;2022-11-30T16:00:05;27.63;;;9.80;;
72408;SDS011;60402;48.082;11.628;2022-11-30T16:02:34;18.77;;;8.27;;
72408;SDS011;60402;48.082;11.628;2022-11-30T16:10:15;24.75;;;8.85;;
72408;SDS011;60402;48.082;11.628;2022-11-30T16:12:49;24.90;;;10.20;;
72408;SDS011;60402;48.082;11.628;2022-11-30T16:15:24;30.67;;;11.27;;
72408;SDS011;60402;48.082;11.628;2022-11-30T16:20:31;27.58;;;10.85;;
72408;SDS011;60402;48.082;11.628;2022-11-30T16:22:56;29.10;;;11.05;;
72408;SDS011;60402;48.082;11.628;2022-11-30T16:25:23;22.60;;;9.73;;
72408;SDS011;60402;48.082;11.628;2022-11-30T16:27:49;29.65;;;10.30;;
72408;SDS011;60402;48.082;11.628;2022-11-30T16:30:17;23.75;;;9.88;;
72408;SDS011;60402;48.082;11.628;2022-11-30T16:32:44;27.50;;;9.63;;
72408;SDS011;60402;48.082;11.628;2022-11-30T16:37:45;21.50;;;8.95;;
72408;SDS011;60402;48.082;11.628;2022-11-30T16:40:11;22.52;;;9.65;;
72408;SDS011;60402;48.082;11.628;2022-11-30T16:42:37;25.77;;;10.43;;
72408;SDS011;60402;48.082;11.628;2022-11-30T16:45:02;25.20;;;9.32;;